Terminal Aerodrome Forecast
Issued by NWS Jackson, KY

Home | Current Version | Previous Version | Text Only | Print | Product List | Glossary On
Versions: 1 2 3 4 5 6 7 8 9 10 11 12 13 14 15 16 17 18 19 20 21 22
000
FTUS43 KJKL 310542 CCA
TAFLOZ
TAF COR
KLOZ 310542Z 3106/0106 VRB03KT P6SM VCSH SCT015 BKN060 BKN150
     FM310900 VRB03KT 3SM BR BKN010 BKN080
     FM311300 VRB03KT P6SM SCT035 BKN045
     FM311700 26005KT P6SM VCTS SCT040CB BKN060
     FM312300 29004KT P6SM FEW050 SCT100=

USA.gov is the U.S. government's official web portal to all federal, state and local government web resources and services.